Time;durP1;ratioP1;P1;durP2;ratioP2;P2;SDS_P1;SDS_P2;PMS_P1;PMS_P2;Temp;Humidity;BMP_temperature;BMP_pressure;BME280_temperature;BME280_humidity;BME280_pressure;Samples;Min_cycle;Max_cycle;Signal;HPM_P1;HPM_P2
2022/05/31 00:02:06;;;;;;;;;;;25.80;34.40;;;;;;5098396;28;1004;-40
2022/05/31 00:04:33;;;;;;;;;;;25.80;34.50;;;;;;5098519;28;1906;-39
2022/05/31 00:07:00;;;;;;;;;;;25.80;34.50;;;;;;5098058;28;888;-41
2022/05/31 00:09:27;;;;;;;;;;;25.80;34.50;;;;;;5098003;28;1008;-40
2022/05/31 00:11:55;;;;;;;;;;;25.80;34.70;;;;;;5098299;28;900;-40
2022/05/31 00:14:23;;;;;;;;;;;25.80;34.80;;;;;;5098502;28;1027;-40
2022/05/31 00:16:49;;;;;;;;;;;25.70;34.70;;;;;;5098205;28;996;-40
2022/05/31 00:19:17;;;;;;;;;;;25.80;34.90;;;;;;5098413;28;1273;-40
2022/05/31 00:21:45;;;;;;;;;;;25.70;34.90;;;;;;5097713;28;1009;-40
2022/05/31 00:24:13;;;;;;;;;;;25.70;34.90;;;;;;5098339;28;1905;-41
2022/05/31 00:26:40;;;;;;;;;;;25.70;34.90;;;;;;5098210;28;972;-40
2022/05/31 00:29:09;;;;;;;;;;;25.70;34.90;;;;;;5098172;28;982;-41
2022/05/31 00:31:37;;;;;;;;;;;25.70;35.00;;;;;;5098882;28;961;-41
2022/05/31 00:34:03;;;;;;;;;;;25.70;35.00;;;;;;5098527;28;937;-43
2022/05/31 00:36:30;;;;;;;;;;;25.70;35.00;;;;;;5098847;28;1020;-41
2022/05/31 00:38:58;;;;;;;;;;;25.70;35.10;;;;;;5099096;28;1108;-37
2022/05/31 00:41:26;;;;;;;;;;;25.70;35.10;;;;;;5098951;28;960;-37
2022/05/31 00:43:53;;;;;;;;;;;25.70;35.10;;;;;;5099535;28;1032;-37
2022/05/31 00:46:22;;;;;;;;;;;25.70;35.00;;;;;;5097906;28;1977;-37
2022/05/31 00:48:51;;;;;;;;;;;25.70;35.00;;;;;;5098228;28;942;-37
2022/05/31 00:51:20;;;;;;;;;;;25.70;35.00;;;;;;5097705;28;933;-37
2022/05/31 00:53:49;;;;;;;;;;;25.70;35.00;;;;;;5098203;28;940;-37
2022/05/31 00:56:17;;;;;;;;;;;25.70;35.10;;;;;;5098516;28;1023;-37
2022/05/31 00:58:47;;;;;;;;;;;25.70;35.20;;;;;;5099294;28;1008;-34
2022/05/31 01:01:16;;;;;;;;;;;25.70;35.20;;;;;;5098812;28;1027;-35
2022/05/31 01:03:44;;;;;;;;;;;25.70;35.20;;;;;;5098589;28;984;-34
2022/05/31 01:06:12;;;;;;;;;;;25.70;35.20;;;;;;5099027;28;1902;-34
2022/05/31 01:08:41;;;;;;;;;;;25.70;35.20;;;;;;5098490;28;1008;-35
2022/05/31 01:11:09;;;;;;;;;;;25.70;35.20;;;;;;5098450;28;1087;-35
2022/05/31 01:13:35;;;;;;;;;;;25.70;35.30;;;;;;5098549;28;1062;-35
2022/05/31 01:16:04;;;;;;;;;;;25.70;35.30;;;;;;5097770;28;965;-35
2022/05/31 01:18:30;;;;;;;;;;;25.60;35.20;;;;;;5098152;28;984;-34
2022/05/31 01:21:00;;;;;;;;;;;25.70;35.20;;;;;;5098071;28;1044;-34
2022/05/31 01:23:28;;;;;;;;;;;25.70;35.20;;;;;;5098494;28;988;-34
2022/05/31 01:25:59;;;;;;;;;;;25.70;35.20;;;;;;5098148;28;1917;-35
2022/05/31 01:28:32;;;;;;;;;;;25.70;35.30;;;;;;5098408;28;1020;-35
2022/05/31 01:31:02;;;;;;;;;;;25.70;35.30;;;;;;5098439;28;1019;-35
2022/05/31 01:33:32;;;;;;;;;;;25.70;35.20;;;;;;5099012;28;941;-35
2022/05/31 01:36:01;;;;;;;;;;;25.70;35.30;;;;;;5098863;28;864;-37
2022/05/31 01:38:31;;;;;;;;;;;25.70;35.30;;;;;;5098479;28;970;-35
2022/05/31 01:41:01;;;;;;;;;;;25.70;35.20;;;;;;5098157;28;1048;-35
2022/05/31 01:43:27;;;;;;;;;;;25.70;35.30;;;;;;5098442;28;916;-35
2022/05/31 01:45:56;;;;;;;;;;;25.70;35.30;;;;;;5098754;28;1991;-35
2022/05/31 01:48:23;;;;;;;;;;;25.70;35.20;;;;;;5097599;28;895;-36
2022/05/31 01:50:50;;;;;;;;;;;25.70;35.20;;;;;;5097968;28;941;-35
2022/05/31 01:53:18;;;;;;;;;;;25.70;35.20;;;;;;5097901;28;988;-35
2022/05/31 01:55:48;;;;;;;;;;;25.70;35.20;;;;;;5098234;28;933;-35
2022/05/31 01:58:17;;;;;;;;;;;25.70;35.30;;;;;;5098343;28;1002;-35
2022/05/31 02:00:44;;;;;;;;;;;25.70;35.20;;;;;;5097386;28;1241;-35
2022/05/31 02:03:11;;;;;;;;;;;25.70;35.20;;;;;;5097980;28;944;-34
2022/05/31 02:05:43;;;;;;;;;;;25.70;35.30;;;;;;5097594;28;1905;-35
2022/05/31 02:08:10;;;;;;;;;;;25.70;35.30;;;;;;5096920;28;987;-35
2022/05/31 02:10:39;;;;;;;;;;;25.70;35.40;;;;;;5097394;28;961;-35
2022/05/31 02:13:06;;;;;;;;;;;25.80;35.20;;;;;;5097059;28;945;-35
2022/05/31 02:15:33;;;;;;;;;;;25.80;35.20;;;;;;5097120;28;1001;-35
2022/05/31 02:18:00;;;;;;;;;;;25.70;35.30;;;;;;5097447;28;1023;-35
2022/05/31 02:20:26;;;;;;;;;;;25.70;35.30;;;;;;5097212;28;1138;-35
2022/05/31 02:22:53;;;;;;;;;;;25.70;35.30;;;;;;5096976;28;984;-34
2022/05/31 02:28:23;;;;;;;;;;;25.70;35.40;;;;;;5096264;28;907;-34
2022/05/31 02:30:50;;;;;;;;;;;25.70;35.40;;;;;;5096768;28;988;-35
2022/05/31 02:33:17;;;;;;;;;;;25.70;35.40;;;;;;5096604;28;1004;-34
2022/05/31 02:35:43;;;;;;;;;;;25.70;35.40;;;;;;5094711;28;924;-35
2022/05/31 02:38:10;;;;;;;;;;;25.70;35.50;;;;;;5095396;28;984;-34
2022/05/31 02:40:37;;;;;;;;;;;25.70;35.40;;;;;;5095366;28;921;-35
2022/05/31 02:43:04;;;;;;;;;;;25.70;35.30;;;;;;5095456;28;1008;-34
2022/05/31 02:45:32;;;;;;;;;;;25.70;35.30;;;;;;5095948;28;1978;-36
2022/05/31 02:47:59;;;;;;;;;;;25.70;35.30;;;;;;5095694;28;1206;-36
2022/05/31 02:50:25;;;;;;;;;;;25.70;35.30;;;;;;5095073;28;1143;-35
2022/05/31 02:52:52;;;;;;;;;;;25.70;35.10;;;;;;5096264;28;980;-35
2022/05/31 02:55:19;;;;;;;;;;;25.70;35.20;;;;;;5096636;28;1040;-35
2022/05/31 02:57:46;;;;;;;;;;;25.70;35.30;;;;;;5096194;28;967;-34
2022/05/31 03:00:14;;;;;;;;;;;25.70;35.20;;;;;;5095528;28;1000;-35
2022/05/31 03:02:42;;;;;;;;;;;25.70;35.40;;;;;;5095722;28;942;-35
2022/05/31 03:05:09;;;;;;;;;;;25.70;35.30;;;;;;5095503;28;1985;-34
2022/05/31 03:07:36;;;;;;;;;;;25.70;35.20;;;;;;5095908;28;1052;-35
2022/05/31 03:10:03;;;;;;;;;;;25.70;35.20;;;;;;5097203;28;1840;-35
2022/05/31 03:12:30;;;;;;;;;;;25.70;35.40;;;;;;5097528;28;929;-34
2022/05/31 03:14:59;;;;;;;;;;;25.70;35.40;;;;;;5097688;28;986;-41
2022/05/31 03:17:28;;;;;;;;;;;25.70;35.40;;;;;;5097438;28;957;-41
2022/05/31 03:20:00;;;;;;;;;;;25.60;35.30;;;;;;5097553;28;1013;-41
2022/05/31 03:22:29;;;;;;;;;;;25.70;35.30;;;;;;5097675;28;992;-40
2022/05/31 03:24:57;;;;;;;;;;;25.70;35.30;;;;;;5097374;28;1894;-41
2022/05/31 03:27:23;;;;;;;;;;;25.70;35.30;;;;;;5097477;28;976;-40
2022/05/31 03:29:52;;;;;;;;;;;25.70;35.30;;;;;;5097168;28;1012;-41
2022/05/31 03:32:20;;;;;;;;;;;25.70;35.20;;;;;;5096898;28;1016;-41
2022/05/31 03:34:47;;;;;;;;;;;25.70;35.30;;;;;;5097165;28;972;-40
2022/05/31 03:37:15;;;;;;;;;;;25.70;35.40;;;;;;5097121;28;1177;-42
2022/05/31 03:39:42;;;;;;;;;;;25.70;35.30;;;;;;5101273;28;984;-41
2022/05/31 03:42:08;;;;;;;;;;;25.70;35.40;;;;;;5100335;28;1020;-40
2022/05/31 03:44:35;;;;;;;;;;;25.70;35.30;;;;;;5100369;28;1024;-41
2022/05/31 03:47:02;;;;;;;;;;;25.70;35.20;;;;;;5100479;28;1902;-40
2022/05/31 03:49:29;;;;;;;;;;;25.70;35.30;;;;;;5098543;28;946;-41
2022/05/31 03:51:56;;;;;;;;;;;25.70;35.40;;;;;;5099088;28;1036;-41
2022/05/31 03:54:25;;;;;;;;;;;25.60;35.50;;;;;;5099640;28;980;-42
2022/05/31 03:56:51;;;;;;;;;;;25.60;35.50;;;;;;5099682;28;1024;-41
2022/05/31 03:59:18;;;;;;;;;;;25.60;35.40;;;;;;5100288;28;986;-41
2022/05/31 04:01:45;;;;;;;;;;;25.60;35.40;;;;;;5099985;28;1145;-41
2022/05/31 04:04:12;;;;;;;;;;;25.70;35.40;;;;;;5100410;28;980;-40
2022/05/31 04:06:38;;;;;;;;;;;25.60;35.40;;;;;;5099527;28;1918;-41
2022/05/31 04:09:05;;;;;;;;;;;25.70;35.30;;;;;;5099720;28;983;-40
2022/05/31 04:11:34;;;;;;;;;;;25.70;35.40;;;;;;5098801;28;998;-41
2022/05/31 04:14:01;;;;;;;;;;;25.60;35.30;;;;;;5098102;28;992;-41
2022/05/31 04:16:28;;;;;;;;;;;25.60;35.30;;;;;;5097728;28;1016;-40
2022/05/31 04:18:54;;;;;;;;;;;25.60;35.50;;;;;;5098012;28;958;-40
2022/05/31 04:21:21;;;;;;;;;;;25.70;35.40;;;;;;5097847;28;1005;-41
2022/05/31 04:24:02;;;;;;;;;;;25.70;35.40;;;;;;5097974;28;1027;-41
2022/05/31 04:26:30;;;;;;;;;;;25.70;35.60;;;;;;5097302;28;1977;-41
2022/05/31 04:28:58;;;;;;;;;;;25.60;35.60;;;;;;5097261;28;917;-40
2022/05/31 04:31:26;;;;;;;;;;;25.60;35.60;;;;;;5097280;28;1017;-42
2022/05/31 04:33:52;;;;;;;;;;;25.60;35.60;;;;;;5097425;28;1024;-41
2022/05/31 04:36:19;;;;;;;;;;;25.60;35.60;;;;;;5097312;28;1003;-41
2022/05/31 04:38:46;;;;;;;;;;;25.60;35.60;;;;;;5096173;28;1007;-41
2022/05/31 04:41:17;;;;;;;;;;;25.70;35.50;;;;;;5096659;28;937;-40
2022/05/31 04:43:44;;;;;;;;;;;25.60;35.50;;;;;;5097017;28;990;-40
2022/05/31 04:46:13;;;;;;;;;;;25.60;35.60;;;;;;5096877;28;1909;-41
2022/05/31 04:48:40;;;;;;;;;;;25.60;35.50;;;;;;5095620;28;937;-41
2022/05/31 04:51:07;;;;;;;;;;;25.60;35.50;;;;;;5096490;28;1055;-40
2022/05/31 04:53:33;;;;;;;;;;;25.60;35.70;;;;;;5095686;28;1035;-42
2022/05/31 04:56:01;;;;;;;;;;;25.60;35.70;;;;;;5095111;28;984;-42
2022/05/31 04:58:27;;;;;;;;;;;25.60;35.60;;;;;;5096895;28;969;-35
2022/05/31 05:00:54;;;;;;;;;;;25.60;35.60;;;;;;5095603;28;1229;-35
2022/05/31 05:03:22;;;;;;;;;;;25.60;35.70;;;;;;5095229;28;945;-35
2022/05/31 05:05:49;;;;;;;;;;;25.60;35.70;;;;;;5095082;28;1969;-35
2022/05/31 05:08:16;;;;;;;;;;;25.60;35.70;;;;;;5094420;28;1018;-35
2022/05/31 05:10:46;;;;;;;;;;;25.60;35.70;;;;;;5094553;28;862;-35
2022/05/31 05:13:12;;;;;;;;;;;25.60;35.70;;;;;;5094018;28;1019;-35
2022/05/31 05:15:40;;;;;;;;;;;25.60;35.70;;;;;;5093633;28;1015;-35
2022/05/31 05:18:06;;;;;;;;;;;25.60;35.70;;;;;;5092917;28;988;-34
2022/05/31 05:20:36;;;;;;;;;;;25.60;35.60;;;;;;5093527;28;969;-35
2022/05/31 05:23:04;;;;;;;;;;;25.60;35.70;;;;;;5095187;28;886;-35
2022/05/31 05:25:30;;;;;;;;;;;25.60;35.70;;;;;;5093168;28;1909;-35
2022/05/31 05:27:57;;;;;;;;;;;25.60;35.70;;;;;;5091755;28;963;-35
2022/05/31 05:30:38;;;;;;;;;;;25.60;35.70;;;;;;5094145;28;980;-35
2022/05/31 05:33:05;;;;;;;;;;;25.60;35.70;;;;;;5095648;28;1008;-35
2022/05/31 05:35:32;;;;;;;;;;;25.60;35.80;;;;;;5095989;28;1012;-35
2022/05/31 05:38:01;;;;;;;;;;;25.60;35.80;;;;;;5095611;28;1004;-35
2022/05/31 05:40:28;;;;;;;;;;;25.60;35.80;;;;;;5096302;28;1098;-35
2022/05/31 05:42:54;;;;;;;;;;;25.60;35.80;;;;;;5097487;28;1031;-35
2022/05/31 05:45:21;;;;;;;;;;;25.60;35.80;;;;;;5097431;28;1744;-36
2022/05/31 05:47:48;;;;;;;;;;;25.60;35.80;;;;;;5095645;28;1980;-36
2022/05/31 05:50:15;;;;;;;;;;;25.60;35.80;;;;;;5095172;28;1032;-36
2022/05/31 05:52:41;;;;;;;;;;;25.60;35.80;;;;;;5095951;28;1124;-35
2022/05/31 05:55:10;;;;;;;;;;;25.60;37.00;;;;;;5096418;28;1076;-35
2022/05/31 05:57:37;;;;;;;;;;;25.60;35.90;;;;;;5111736;28;1492;-36
2022/05/31 06:00:04;;;;;;;;;;;25.60;35.90;;;;;;5117046;28;1861;-36
2022/05/31 06:02:31;;;;;;;;;;;25.60;35.80;;;;;;5117323;28;933;-35
2022/05/31 06:05:01;;;;;;;;;;;25.60;35.80;;;;;;5116882;28;1119;-34
2022/05/31 06:07:30;;;;;;;;;;;25.60;35.80;;;;;;5116196;28;1992;-34
2022/05/31 06:10:00;;;;;;;;;;;25.60;36.00;;;;;;5115355;28;944;-34
2022/05/31 06:12:31;;;;;;;;;;;25.60;36.00;;;;;;5116712;28;1000;-39
2022/05/31 06:14:59;;;;;;;;;;;25.60;36.00;;;;;;5115003;28;991;-39
2022/05/31 06:17:31;;;;;;;;;;;25.60;36.10;;;;;;5114866;28;849;-33
2022/05/31 06:20:00;;;;;;;;;;;25.70;36.40;;;;;;5115978;28;1048;-34
2022/05/31 06:22:27;;;;;;;;;;;25.60;35.80;;;;;;5115871;28;909;-37
2022/05/31 06:24:53;;;;;;;;;;;25.60;36.00;;;;;;5115878;28;980;-36
2022/05/31 06:27:20;;;;;;;;;;;25.60;36.00;;;;;;5116070;28;1980;-37
2022/05/31 06:29:48;;;;;;;;;;;25.60;36.30;;;;;;5114481;28;991;-36
2022/05/31 06:32:16;;;;;;;;;;;25.50;36.40;;;;;;5114672;28;943;-38
2022/05/31 06:34:45;;;;;;;;;;;25.50;36.40;;;;;;5114657;28;987;-36
2022/05/31 06:37:13;;;;;;;;;;;25.50;36.50;;;;;;5115730;28;953;-37
2022/05/31 06:39:41;;;;;;;;;;;25.50;36.60;;;;;;5113744;28;929;-36
2022/05/31 06:42:09;;;;;;;;;;;25.50;36.60;;;;;;5114193;28;1407;-36
2022/05/31 06:44:36;;;;;;;;;;;25.50;36.50;;;;;;5114934;28;986;-38
2022/05/31 06:47:04;;;;;;;;;;;25.60;36.80;;;;;;5115818;28;1909;-39
2022/05/31 06:49:32;;;;;;;;;;;25.50;36.50;;;;;;5115785;28;869;-38
2022/05/31 06:57:30;;;;;;;;;;;25.60;36.40;;;;;;5114447;28;624;-38
2022/05/31 06:59:57;;;;;;;;;;;25.70;36.30;;;;;;5115239;28;1066;-38
2022/05/31 07:02:27;;;;;;;;;;;25.70;36.30;;;;;;5115400;28;1000;-38
2022/05/31 07:04:54;;;;;;;;;;;25.60;36.30;;;;;;5115478;28;988;-38
2022/05/31 07:07:20;;;;;;;;;;;25.60;36.40;;;;;;5112175;28;1902;-38
2022/05/31 07:09:47;;;;;;;;;;;25.60;36.50;;;;;;5114238;28;875;-38
2022/05/31 07:12:14;;;;;;;;;;;25.60;36.60;;;;;;5115001;28;945;-38
2022/05/31 07:14:41;;;;;;;;;;;25.60;36.70;;;;;;5117075;28;937;-38
2022/05/31 07:17:09;;;;;;;;;;;25.60;36.60;;;;;;5118255;28;1006;-38
2022/05/31 07:19:38;;;;;;;;;;;25.60;36.80;;;;;;5117241;28;895;-38
2022/05/31 07:22:05;;;;;;;;;;;25.60;36.70;;;;;;5116802;28;953;-38
2022/05/31 07:24:32;;;;;;;;;;;25.60;36.70;;;;;;5117870;28;993;-42
2022/05/31 07:26:59;;;;;;;;;;;25.60;36.70;;;;;;5116162;28;1978;-38
2022/05/31 07:29:28;;;;;;;;;;;25.60;36.50;;;;;;5114680;27;988;-38
2022/05/31 07:31:54;;;;;;;;;;;25.60;36.50;;;;;;5117914;28;1004;-38
2022/05/31 07:34:23;;;;;;;;;;;25.60;36.70;;;;;;5116979;28;933;-38
2022/05/31 07:36:51;;;;;;;;;;;25.60;36.60;;;;;;5117058;28;1023;-38
2022/05/31 07:39:19;;;;;;;;;;;25.50;36.60;;;;;;5116481;28;993;-38
2022/05/31 07:41:46;;;;;;;;;;;25.60;36.70;;;;;;5117059;28;1030;-38
2022/05/31 07:44:13;;;;;;;;;;;25.60;36.50;;;;;;5116717;28;988;-38
2022/05/31 07:46:40;;;;;;;;;;;25.60;36.50;;;;;;5116538;28;1992;-38
2022/05/31 07:49:07;;;;;;;;;;;25.60;36.70;;;;;;5117153;28;1041;-38
2022/05/31 07:51:34;;;;;;;;;;;25.60;36.70;;;;;;5116660;28;1004;-38
2022/05/31 07:54:02;;;;;;;;;;;25.60;36.70;;;;;;5115749;28;988;-42
2022/05/31 07:56:29;;;;;;;;;;;25.70;36.80;;;;;;5117690;28;920;-38
2022/05/31 07:58:55;;;;;;;;;;;25.60;36.70;;;;;;5116536;28;992;-37
2022/05/31 08:01:25;;;;;;;;;;;25.60;36.60;;;;;;5116913;28;1816;-38
2022/05/31 08:03:52;;;;;;;;;;;25.60;36.70;;;;;;5116550;28;949;-38
2022/05/31 08:06:20;;;;;;;;;;;25.60;36.70;;;;;;5115899;28;956;-38
2022/05/31 08:08:47;;;;;;;;;;;25.60;36.70;;;;;;5116438;28;1096;-38
2022/05/31 08:11:16;;;;;;;;;;;25.70;36.70;;;;;;5116371;28;916;-38
2022/05/31 08:13:43;;;;;;;;;;;25.70;36.50;;;;;;5115829;28;1016;-38
2022/05/31 08:16:11;;;;;;;;;;;25.60;36.60;;;;;;5115437;28;949;-38
2022/05/31 08:18:39;;;;;;;;;;;25.70;36.70;;;;;;5115597;28;1022;-38
2022/05/31 08:21:06;;;;;;;;;;;25.60;36.70;;;;;;5115732;28;933;-38
2022/05/31 08:23:34;;;;;;;;;;;25.60;36.70;;;;;;5115394;28;902;-38
2022/05/31 08:26:01;;;;;;;;;;;25.70;36.80;;;;;;5115973;28;1028;-38
2022/05/31 08:28:29;;;;;;;;;;;25.70;36.70;;;;;;5116093;28;1902;-38
2022/05/31 08:30:57;;;;;;;;;;;25.60;36.80;;;;;;5115132;28;940;-38
2022/05/31 08:33:24;;;;;;;;;;;25.70;36.80;;;;;;5115459;28;1031;-38
2022/05/31 08:35:51;;;;;;;;;;;25.70;37.90;;;;;;5115735;28;1800;-37
2022/05/31 08:38:19;;;;;;;;;;;25.70;36.80;;;;;;5116273;28;920;-38
2022/05/31 08:40:52;;;;;;;;;;;25.70;36.80;;;;;;5115978;28;1021;-37
2022/05/31 08:43:23;;;;;;;;;;;25.60;36.90;;;;;;5115795;28;1011;-38
2022/05/31 08:45:53;;;;;;;;;;;25.60;36.80;;;;;;5114940;28;976;-38
2022/05/31 08:48:26;;;;;;;;;;;25.70;36.80;;;;;;5116247;28;1913;-38
2022/05/31 08:53:43;;;;;;;;;;;25.70;36.90;;;;;;5114342;28;856;-38
2022/05/31 08:59:00;;;;;;;;;;;25.70;36.80;;;;;;5116694;28;1001;-38
2022/05/31 09:01:31;;;;;;;;;;;25.70;36.80;;;;;;5115143;28;1021;-37
2022/05/31 09:04:09;;;;;;;;;;;25.70;36.80;;;;;;5116238;28;979;-38
2022/05/31 09:06:40;;;;;;;;;;;25.70;36.90;;;;;;5114272;28;934;-38
2022/05/31 09:09:11;;;;;;;;;;;25.60;36.90;;;;;;5114973;27;1243;-38
2022/05/31 09:11:40;;;;;;;;;;;25.70;37.00;;;;;;5113333;28;944;-38
2022/05/31 09:14:11;;;;;;;;;;;25.70;37.00;;;;;;5112530;28;943;-38
2022/05/31 09:16:46;;;;;;;;;;;25.70;36.80;;;;;;5114255;28;1013;-37
2022/05/31 09:19:15;;;;;;;;;;;25.70;36.80;;;;;;5114953;28;968;-38
2022/05/31 09:21:45;;;;;;;;;;;25.70;36.90;;;;;;5115251;28;980;-38
2022/05/31 09:24:12;;;;;;;;;;;25.80;36.80;;;;;;5114633;28;994;-38
2022/05/31 09:26:51;;;;;;;;;;;25.80;36.80;;;;;;5115337;28;929;-38
2022/05/31 09:29:20;;;;;;;;;;;25.70;36.70;;;;;;5113189;28;921;-38
2022/05/31 09:31:53;;;;;;;;;;;25.70;36.80;;;;;;5115092;28;1027;-38
2022/05/31 09:34:31;;;;;;;;;;;25.70;36.70;;;;;;5115473;28;924;-38
2022/05/31 09:37:04;;;;;;;;;;;25.70;36.70;;;;;;5115337;28;1031;-38
2022/05/31 09:39:33;;;;;;;;;;;25.70;36.80;;;;;;5099535;28;1075;-38
2022/05/31 09:42:02;;;;;;;;;;;25.70;36.70;;;;;;5113856;28;885;-38
2022/05/31 09:44:32;;;;;;;;;;;25.70;36.70;;;;;;5113631;28;976;-38
2022/05/31 09:47:03;;;;;;;;;;;25.70;37.80;;;;;;5113641;28;1898;-38
2022/05/31 09:49:32;;;;;;;;;;;25.70;36.60;;;;;;5113900;28;1782;-38
2022/05/31 09:51:59;;;;;;;;;;;25.70;36.70;;;;;;5113689;28;979;-37
2022/05/31 09:57:13;;;;;;;;;;;25.80;36.50;;;;;;5114794;28;692;-38
2022/05/31 09:59:44;;;;;;;;;;;25.70;36.70;;;;;;5113618;28;1015;-38
2022/05/31 10:02:19;;;;;;;;;;;25.70;36.80;;;;;;5114115;28;888;-38
2022/05/31 10:04:47;;;;;;;;;;;25.60;36.80;;;;;;5113652;28;987;-38
2022/05/31 10:07:14;;;;;;;;;;;25.60;36.80;;;;;;5112130;28;1897;-38
2022/05/31 10:09:43;;;;;;;;;;;25.60;36.80;;;;;;5112535;28;1302;-38
2022/05/31 10:12:19;;;;;;;;;;;25.60;36.80;;;;;;5114399;28;992;-38
2022/05/31 10:14:47;;;;;;;;;;;25.60;36.80;;;;;;5112246;28;1089;-38
2022/05/31 10:17:28;;;;;;;;;;;25.60;36.70;;;;;;5113925;28;933;-38
2022/05/31 10:20:07;;;;;;;;;;;25.70;36.80;;;;;;5114828;28;992;-38
2022/05/31 10:22:35;;;;;;;;;;;25.70;36.70;;;;;;5113270;28;964;-38
2022/05/31 10:25:18;;;;;;;;;;;25.70;36.80;;;;;;5114022;28;980;-38
2022/05/31 10:27:45;;;;;;;;;;;25.70;36.80;;;;;;5113607;28;1975;-38
2022/05/31 10:30:17;;;;;;;;;;;25.70;36.80;;;;;;5114652;28;936;-38
2022/05/31 10:32:48;;;;;;;;;;;25.70;36.90;;;;;;5116351;28;941;-38
2022/05/31 10:35:15;;;;;;;;;;;25.70;36.80;;;;;;5113884;28;988;-38
2022/05/31 10:37:57;;;;;;;;;;;25.70;36.90;;;;;;5113688;28;921;-38
2022/05/31 10:40:27;;;;;;;;;;;25.70;36.80;;;;;;5112830;28;1031;-38
2022/05/31 10:42:56;;;;;;;;;;;25.70;36.90;;;;;;5112449;28;980;-38
2022/05/31 10:45:26;;;;;;;;;;;25.70;36.90;;;;;;5112408;28;1130;-38
2022/05/31 10:47:56;;;;;;;;;;;25.70;37.00;;;;;;5113547;28;1995;-37
2022/05/31 10:50:24;;;;;;;;;;;25.70;36.90;;;;;;5117200;28;1024;-38
2022/05/31 10:53:05;;;;;;;;;;;25.70;36.80;;;;;;5116417;28;1019;-38
2022/05/31 10:55:36;;;;;;;;;;;25.80;36.90;;;;;;5117136;28;1075;-38
2022/05/31 10:58:21;;;;;;;;;;;25.70;37.00;;;;;;5115716;28;1000;-38
2022/05/31 11:00:50;;;;;;;;;;;25.80;37.00;;;;;;5115692;28;1188;-38
2022/05/31 11:03:30;;;;;;;;;;;25.80;36.90;;;;;;5115698;28;1783;-38
2022/05/31 11:06:14;;;;;;;;;;;25.80;36.90;;;;;;5115740;28;1012;-38
2022/05/31 11:11:41;;;;;;;;;;;25.80;36.90;;;;;;5116867;28;691;-38
2022/05/31 11:14:18;;;;;;;;;;;25.80;36.80;;;;;;5115571;28;949;-38
2022/05/31 11:16:52;;;;;;;;;;;25.80;36.80;;;;;;5115666;28;1020;-38
2022/05/31 11:19:29;;;;;;;;;;;25.80;36.80;;;;;;5116926;28;1011;-38
2022/05/31 11:22:14;;;;;;;;;;;25.80;36.90;;;;;;5116130;28;937;-38
2022/05/31 11:24:49;;;;;;;;;;;25.80;36.80;;;;;;5116739;28;924;-38
2022/05/31 11:27:23;;;;;;;;;;;25.80;36.70;;;;;;5116748;28;1005;-38
2022/05/31 11:30:01;;;;;;;;;;;25.80;36.90;;;;;;5117552;28;894;-38
2022/05/31 11:32:37;;;;;;;;;;;25.80;36.80;;;;;;5116987;28;857;-39
2022/05/31 11:35:15;;;;;;;;;;;25.80;37.00;;;;;;5118436;28;980;-38
2022/05/31 11:37:49;;;;;;;;;;;25.80;36.80;;;;;;5118711;28;1154;-38
2022/05/31 11:40:33;;;;;;;;;;;25.80;36.90;;;;;;5117523;28;973;-38
2022/05/31 11:43:08;;;;;;;;;;;25.90;36.90;;;;;;5117550;28;980;-38
2022/05/31 11:45:37;;;;;;;;;;;25.90;37.00;;;;;;5117008;28;1043;-38
2022/05/31 11:48:11;;;;;;;;;;;25.90;36.90;;;;;;5117394;28;1988;-38
2022/05/31 11:50:45;;;;;;;;;;;25.80;37.00;;;;;;5116360;28;991;-38
2022/05/31 11:53:21;;;;;;;;;;;25.80;36.90;;;;;;5115834;28;1109;-38
2022/05/31 11:55:50;;;;;;;;;;;25.80;36.90;;;;;;5116892;28;838;-38
2022/05/31 11:58:28;;;;;;;;;;;25.80;36.90;;;;;;5115771;28;1003;-38
2022/05/31 12:01:02;;;;;;;;;;;25.90;37.00;;;;;;5115572;28;1310;-39
2022/05/31 12:03:32;;;;;;;;;;;25.90;37.00;;;;;;5115398;28;984;-38
2022/05/31 12:06:06;;;;;;;;;;;25.90;36.90;;;;;;5115354;28;1004;-38
2022/05/31 12:08:35;;;;;;;;;;;26.00;36.90;;;;;;5116104;28;1922;-38
2022/05/31 12:11:06;;;;;;;;;;;25.90;36.90;;;;;;5117396;28;856;-38
2022/05/31 12:13:35;;;;;;;;;;;26.00;36.90;;;;;;5114887;28;967;-38
2022/05/31 12:16:03;;;;;;;;;;;26.00;36.90;;;;;;5116850;28;825;-38
2022/05/31 12:18:35;;;;;;;;;;;25.90;38.10;;;;;;5116152;28;906;-38
2022/05/31 12:21:07;;;;;;;;;;;25.90;37.10;;;;;;5116021;28;980;-38
2022/05/31 12:23:36;;;;;;;;;;;25.90;36.90;;;;;;5116402;28;1000;-38
2022/05/31 12:26:05;;;;;;;;;;;26.00;38.20;;;;;;5117491;28;1000;-38
2022/05/31 12:28:33;;;;;;;;;;;26.00;37.10;;;;;;5117435;28;1893;-38
2022/05/31 12:31:03;;;;;;;;;;;26.00;36.90;;;;;;5116103;28;996;-38
2022/05/31 12:36:17;;;;;;;;;;;26.10;37.00;;;;;;5118262;28;977;-38
2022/05/31 12:38:55;;;;;;;;;;;26.00;37.00;;;;;;5115939;28;1030;-38
2022/05/31 12:41:32;;;;;;;;;;;26.00;36.90;;;;;;5115710;28;934;-38
2022/05/31 12:44:00;;;;;;;;;;;26.10;36.90;;;;;;5115528;28;888;-38
2022/05/31 12:46:38;;;;;;;;;;;26.10;36.80;;;;;;5114443;28;1030;-38
2022/05/31 12:49:06;;;;;;;;;;;26.00;36.80;;;;;;5114480;28;1913;-38
2022/05/31 12:51:34;;;;;;;;;;;26.10;36.80;;;;;;5114809;28;949;-38
2022/05/31 12:54:05;;;;;;;;;;;26.10;36.80;;;;;;5114639;28;1004;-39
2022/05/31 12:56:47;;;;;;;;;;;26.10;36.80;;;;;;5116354;28;935;-38
2022/05/31 12:59:34;;;;;;;;;;;26.10;36.80;;;;;;5098076;28;1505;-39
2022/05/31 13:02:01;;;;;;;;;;;26.10;36.80;;;;;;5073170;28;1881;-38
2022/05/31 13:04:31;;;;;;;;;;;26.10;36.80;;;;;;5075937;28;1009;-38
2022/05/31 13:07:11;;;;;;;;;;;26.10;36.80;;;;;;5074589;28;940;-38
2022/05/31 13:09:40;;;;;;;;;;;26.10;36.80;;;;;;5075172;28;1983;-38
2022/05/31 13:20:31;;;;;;;;;;;26.00;36.90;;;;;;5073607;28;1008;-38
2022/05/31 13:23:02;;;;;;;;;;;26.00;37.00;;;;;;5074582;28;960;-38
2022/05/31 13:25:32;;;;;;;;;;;26.00;37.00;;;;;;5074255;28;986;-38
2022/05/31 13:28:00;;;;;;;;;;;26.00;37.10;;;;;;5073970;28;1966;-38
2022/05/31 13:30:28;;;;;;;;;;;26.00;37.10;;;;;;5074108;28;1028;-38
2022/05/31 13:32:56;;;;;;;;;;;26.00;37.10;;;;;;5074707;28;957;-38
2022/05/31 13:35:25;;;;;;;;;;;26.00;37.20;;;;;;5075140;28;1002;-38
2022/05/31 13:37:57;;;;;;;;;;;26.00;37.20;;;;;;5074669;28;960;-38
2022/05/31 13:40:26;;;;;;;;;;;26.10;37.30;;;;;;5073386;28;1318;-38
2022/05/31 13:42:55;;;;;;;;;;;26.10;37.20;;;;;;5074082;28;953;-38
2022/05/31 13:45:24;;;;;;;;;;;26.10;37.10;;;;;;5073801;28;1123;-38
2022/05/31 13:47:51;;;;;;;;;;;26.10;37.00;;;;;;5074359;28;981;-38
2022/05/31 13:50:19;;;;;;;;;;;26.10;36.90;;;;;;5072751;28;1905;-38
2022/05/31 13:52:49;;;;;;;;;;;26.20;37.00;;;;;;5073858;28;1004;-38
2022/05/31 13:55:19;;;;;;;;;;;26.10;37.00;;;;;;5074024;28;996;-38
2022/05/31 13:57:52;;;;;;;;;;;26.10;36.90;;;;;;5072791;28;1024;-38
2022/05/31 14:00:31;;;;;;;;;;;26.20;37.00;;;;;;5085308;28;1233;-38
2022/05/31 14:03:06;;;;;;;;;;;26.20;37.00;;;;;;5112720;28;880;-38
2022/05/31 14:05:34;;;;;;;;;;;26.20;36.80;;;;;;5113702;28;889;-38
2022/05/31 14:08:01;;;;;;;;;;;26.30;36.90;;;;;;5111882;28;1036;-38
2022/05/31 14:10:32;;;;;;;;;;;26.30;37.00;;;;;;5112247;28;1909;-38
2022/05/31 14:13:01;;;;;;;;;;;26.30;36.90;;;;;;5113359;28;925;-38
2022/05/31 14:15:29;;;;;;;;;;;26.40;36.90;;;;;;5112490;28;989;-39
2022/05/31 14:18:05;;;;;;;;;;;26.40;36.70;;;;;;5113561;28;1746;-38
2022/05/31 14:20:34;;;;;;;;;;;26.40;36.90;;;;;;5113950;28;1059;-38
2022/05/31 14:23:04;;;;;;;;;;;26.40;37.90;;;;;;5113158;28;968;-39
2022/05/31 14:25:31;;;;;;;;;;;26.40;36.90;;;;;;5113653;28;1134;-38
2022/05/31 14:27:58;;;;;;;;;;;26.40;36.90;;;;;;5112922;28;1027;-38
2022/05/31 14:30:34;;;;;;;;;;;26.40;37.10;;;;;;5116782;28;1964;-38
2022/05/31 14:33:02;;;;;;;;;;;26.40;36.90;;;;;;5113737;28;968;-38
2022/05/31 14:35:33;;;;;;;;;;;26.40;37.00;;;;;;5113491;28;1022;-39
2022/05/31 14:38:03;;;;;;;;;;;26.40;37.00;;;;;;5115494;28;1563;-38
2022/05/31 14:40:31;;;;;;;;;;;26.40;37.00;;;;;;5113398;28;1245;-38
2022/05/31 14:43:03;;;;;;;;;;;26.50;36.80;;;;;;5114008;28;980;-38
2022/05/31 14:45:32;;;;;;;;;;;26.60;36.70;;;;;;5113921;28;1130;-38
2022/05/31 14:48:20;;;;;;;;;;;26.70;36.80;;;;;;5112680;28;1019;-38
2022/05/31 14:50:55;;;;;;;;;;;26.70;36.80;;;;;;5112090;28;1987;-38
2022/05/31 14:53:22;;;;;;;;;;;26.70;36.80;;;;;;5112277;28;1074;-38
2022/05/31 14:55:51;;;;;;;;;;;26.80;36.60;;;;;;5113051;28;924;-38
2022/05/31 14:58:40;;;;;;;;;;;26.80;36.60;;;;;;5114381;28;1197;-38
2022/05/31 15:01:13;;;;;;;;;;;26.80;36.70;;;;;;5113792;28;1070;-38
2022/05/31 15:03:43;;;;;;;;;;;26.80;36.50;;;;;;5112753;28;1001;-38
2022/05/31 15:06:11;;;;;;;;;;;26.80;36.50;;;;;;5114041;28;960;-37
2022/05/31 15:08:38;;;;;;;;;;;26.80;36.40;;;;;;5111128;28;1887;-39
2022/05/31 15:19:31;;;;;;;;;;;26.90;36.60;;;;;;5114744;28;882;-38
2022/05/31 15:21:58;;;;;;;;;;;26.90;36.50;;;;;;5114450;28;1023;-38
2022/05/31 15:24:27;;;;;;;;;;;26.90;36.50;;;;;;5114316;28;980;-38
2022/05/31 15:26:54;;;;;;;;;;;26.90;36.50;;;;;;5113754;28;992;-38
2022/05/31 15:29:21;;;;;;;;;;;26.90;36.50;;;;;;5114283;28;1911;-38